Archival Weather

Chicago O'Hare International

Chicago, Illinois (KORD)

Report from: Wednesday, November 23, 2022 1:51 PM CST
Current time: Monday, July 22, 2024 5:55 AM CDT

Current weather – Weather history – Daily summaries
Weather forecast

Temperature14.4°C (57.9°F)
Dew point3.3°C (37.9°F)
Winds 11 kts (5.7 m/s, 12.7 mph) South-Southwest (210°)
Visibility10 mi. (16.1 km)
Clouds Few clouds 15,000 ft. (4,572 m)
Few clouds 25,000 ft. (7,620 m)
Altimeter30.10 in.Hg (1019 mB)
Relative humidity47 %
Density altitude-173 ft. (-53 m)
Sea-level pressure102.0 kPa (1020 mB, 30.11 in.Hg)
Remarks System requires maintenance
Automated weather observing station with precipitation discriminator
Flight conditions Visual Meteorological Conditions
Raw dataKORD 231951Z 21011KT 10SM FEW150 FEW250 14/03 A3010 RMK AO2 SLP197 T01440033 $
An error has occurred. This application may no longer respond until reloaded. Reload 🗙